sensor_id;sensor_type;location;lat;lon;timestamp;pressure;altitude;pressure_sealevel;temperature;humidity
30302;BME280;17111;52.130;5.028;2023-06-24T00:00:37;102543.41;;;26.75;43.37
30302;BME280;17111;52.130;5.028;2023-06-24T00:03:04;102538.81;;;26.75;43.10
30302;BME280;17111;52.130;5.028;2023-06-24T00:05:34;102543.41;;;26.75;43.28
30302;BME280;17111;52.130;5.028;2023-06-24T00:08:00;102547.16;;;26.74;43.21
30302;BME280;17111;52.130;5.028;2023-06-24T00:10:30;102542.56;;;26.74;43.28
30302;BME280;17111;52.130;5.028;2023-06-24T00:12:56;102540.81;;;26.73;43.20
30302;BME280;17111;52.130;5.028;2023-06-24T00:15:23;102551.72;;;26.73;43.21
30302;BME280;17111;52.130;5.028;2023-06-24T00:17:50;102545.41;;;26.73;43.09
30302;BME280;17111;52.130;5.028;2023-06-24T00:20:17;102550.00;;;26.72;43.48
30302;BME280;17111;52.130;5.028;2023-06-24T00:22:44;102545.59;;;26.71;43.46
30302;BME280;17111;52.130;5.028;2023-06-24T00:25:14;102548.31;;;26.71;43.43
30302;BME280;17111;52.130;5.028;2023-06-24T00:27:41;102544.75;;;26.71;43.18
30302;BME280;17111;52.130;5.028;2023-06-24T00:30:10;102543.06;;;26.70;43.67
30302;BME280;17111;52.130;5.028;2023-06-24T00:32:36;102547.63;;;26.69;43.45
30302;BME280;17111;52.130;5.028;2023-06-24T00:35:03;102548.66;;;26.68;43.29
30302;BME280;17111;52.130;5.028;2023-06-24T00:37:30;102551.38;;;26.68;43.36
30302;BME280;17111;52.130;5.028;2023-06-24T00:39:57;102553.25;;;26.68;43.25
30302;BME280;17111;52.130;5.028;2023-06-24T00:42:23;102546.97;;;26.67;43.38
30302;BME280;17111;52.130;5.028;2023-06-24T00:44:50;102542.56;;;26.66;43.37
30302;BME280;17111;52.130;5.028;2023-06-24T00:47:17;102543.41;;;26.67;43.14
30302;BME280;17111;52.130;5.028;2023-06-24T00:49:44;102546.28;;;26.65;43.43
30302;BME280;17111;52.130;5.028;2023-06-24T00:52:12;102538.97;;;26.66;43.22
30302;BME280;17111;52.130;5.028;2023-06-24T00:54:43;102540.81;;;26.65;43.43
30302;BME280;17111;52.130;5.028;2023-06-24T00:57:09;102539.97;;;26.65;43.43
30302;BME280;17111;52.130;5.028;2023-06-24T00:59:37;102546.44;;;26.64;43.22
30302;BME280;17111;52.130;5.028;2023-06-24T01:02:04;102542.03;;;26.63;43.26
30302;BME280;17111;52.130;5.028;2023-06-24T01:04:32;102548.50;;;26.62;43.40
30302;BME280;17111;52.130;5.028;2023-06-24T01:07:00;102544.06;;;26.61;43.31
30302;BME280;17111;52.130;5.028;2023-06-24T01:09:28;102534.22;;;26.60;43.54
30302;BME280;17111;52.130;5.028;2023-06-24T01:11:54;102537.97;;;26.58;43.37
30302;BME280;17111;52.130;5.028;2023-06-24T01:14:21;102532.53;;;26.58;43.33
30302;BME280;17111;52.130;5.028;2023-06-24T01:17:11;102521.97;;;26.55;43.29
30302;BME280;17111;52.130;5.028;2023-06-24T01:20:08;102521.97;;;26.55;43.48
30302;BME280;17111;52.130;5.028;2023-06-24T01:28:30;102527.75;;;26.52;43.40
30302;BME280;17111;52.130;5.028;2023-06-24T01:31:30;102524.34;;;26.50;43.59
30302;BME280;17111;52.130;5.028;2023-06-24T01:34:32;102515.34;;;26.50;43.28
30302;BME280;17111;52.130;5.028;2023-06-24T01:37:17;102518.91;;;26.50;43.44
30302;BME280;17111;52.130;5.028;2023-06-24T01:42:50;102509.22;;;26.48;43.57
30302;BME280;17111;52.130;5.028;2023-06-24T01:45:22;102519.44;;;26.46;43.43
30302;BME280;17111;52.130;5.028;2023-06-24T01:50:33;102517.84;;;26.43;43.51
30302;BME280;17111;52.130;5.028;2023-06-24T01:53:04;102518.88;;;26.42;43.36
30302;BME280;17111;52.130;5.028;2023-06-24T01:55:32;102517.16;;;26.41;43.43
30302;BME280;17111;52.130;5.028;2023-06-24T01:58:03;102513.59;;;26.41;43.58
30302;BME280;17111;52.130;5.028;2023-06-24T02:00:33;102519.22;;;26.39;43.43
30302;BME280;17111;52.130;5.028;2023-06-24T02:03:01;102520.25;;;26.38;43.45
30302;BME280;17111;52.130;5.028;2023-06-24T02:05:31;102514.81;;;26.38;43.57
30302;BME280;17111;52.130;5.028;2023-06-24T02:07:59;102510.38;;;26.37;43.61
30302;BME280;17111;52.130;5.028;2023-06-24T02:10:28;102509.50;;;26.37;43.61
30302;BME280;17111;52.130;5.028;2023-06-24T02:12:55;102500.69;;;26.34;43.48
30302;BME280;17111;52.130;5.028;2023-06-24T02:15:23;102503.41;;;26.34;43.66
30302;BME280;17111;52.130;5.028;2023-06-24T02:17:52;102500.84;;;26.33;43.42
30302;BME280;17111;52.130;5.028;2023-06-24T02:20:23;102504.59;;;26.32;43.58
30302;BME280;17111;52.130;5.028;2023-06-24T02:22:55;102494.75;;;26.31;43.68
30302;BME280;17111;52.130;5.028;2023-06-24T02:25:24;102503.94;;;26.30;43.79
30302;BME280;17111;52.130;5.028;2023-06-24T02:27:53;102500.34;;;26.29;43.52
30302;BME280;17111;52.130;5.028;2023-06-24T02:30:21;102494.91;;;26.29;43.73
30302;BME280;17111;52.130;5.028;2023-06-24T02:32:49;102491.50;;;26.27;43.83
30302;BME280;17111;52.130;5.028;2023-06-24T02:35:15;102487.94;;;26.27;43.51
30302;BME280;17111;52.130;5.028;2023-06-24T02:37:42;102495.25;;;26.26;43.83
30302;BME280;17111;52.130;5.028;2023-06-24T02:40:09;102499.84;;;26.26;43.63
30302;BME280;17111;52.130;5.028;2023-06-24T02:42:36;102497.28;;;26.24;43.80
30302;BME280;17111;52.130;5.028;2023-06-24T02:45:03;102497.28;;;26.24;43.68
30302;BME280;17111;52.130;5.028;2023-06-24T02:47:32;102494.72;;;26.23;43.86
30302;BME280;17111;52.130;5.028;2023-06-24T02:50:00;102485.72;;;26.22;43.77
30302;BME280;17111;52.130;5.028;2023-06-24T02:52:27;102498.47;;;26.22;43.66
30302;BME280;17111;52.130;5.028;2023-06-24T02:54:56;102492.19;;;26.21;43.71
30302;BME280;17111;52.130;5.028;2023-06-24T02:57:25;102502.19;;;26.21;43.90
30302;BME280;17111;52.130;5.028;2023-06-24T02:59:52;102503.22;;;26.20;43.70
30302;BME280;17111;52.130;5.028;2023-06-24T03:02:19;102499.66;;;26.19;43.88
30302;BME280;17111;52.130;5.028;2023-06-24T03:04:46;102494.41;;;26.18;43.85
30302;BME280;17111;52.130;5.028;2023-06-24T03:07:14;102501.72;;;26.17;43.84
30302;BME280;17111;52.130;5.028;2023-06-24T03:09:42;102489.09;;;26.16;43.79
30302;BME280;17111;52.130;5.028;2023-06-24T03:12:09;102490.97;;;26.16;43.83
30302;BME280;17111;52.130;5.028;2023-06-24T03:14:37;102493.88;;;26.14;43.90
30302;BME280;17111;52.130;5.028;2023-06-24T03:17:04;102485.72;;;26.14;43.83
30302;BME280;17111;52.130;5.028;2023-06-24T03:19:30;102484.88;;;26.14;43.73
30302;BME280;17111;52.130;5.028;2023-06-24T03:21:57;102490.31;;;26.14;43.80
30302;BME280;17111;52.130;5.028;2023-06-24T03:24:23;102477.91;;;26.11;43.89
30302;BME280;17111;52.130;5.028;2023-06-24T03:26:50;102477.06;;;26.11;43.63
30302;BME280;17111;52.130;5.028;2023-06-24T03:29:23;102483.50;;;26.09;43.85
30302;BME280;17111;52.130;5.028;2023-06-24T03:31:49;102487.09;;;26.10;43.88
30302;BME280;17111;52.130;5.028;2023-06-24T03:34:16;102490.78;;;26.09;44.03
30302;BME280;17111;52.130;5.028;2023-06-24T03:36:43;102500.81;;;26.08;43.84
30302;BME280;17111;52.130;5.028;2023-06-24T03:39:10;102496.41;;;26.07;43.86
30302;BME280;17111;52.130;5.028;2023-06-24T03:41:36;102496.41;;;26.07;43.71
30302;BME280;17111;52.130;5.028;2023-06-24T03:44:03;102493.03;;;26.05;43.91
30302;BME280;17111;52.130;5.028;2023-06-24T03:46:30;102498.28;;;26.07;43.90
30302;BME280;17111;52.130;5.028;2023-06-24T03:48:59;102501.19;;;26.05;44.03
30302;BME280;17111;52.130;5.028;2023-06-24T03:51:27;102498.47;;;26.05;43.78
30302;BME280;17111;52.130;5.028;2023-06-24T03:53:53;102495.03;;;26.03;44.02
30302;BME280;17111;52.130;5.028;2023-06-24T03:56:20;102494.00;;;26.04;43.95
30302;BME280;17111;52.130;5.028;2023-06-24T03:58:46;102493.16;;;26.04;44.01
30302;BME280;17111;52.130;5.028;2023-06-24T04:01:13;102502.16;;;26.04;43.86
30302;BME280;17111;52.130;5.028;2023-06-24T04:03:40;102498.59;;;26.04;43.79
30302;BME280;17111;52.130;5.028;2023-06-24T04:06:06;102495.03;;;26.03;43.92
30302;BME280;17111;52.130;5.028;2023-06-24T04:08:33;102494.00;;;26.04;43.93
30302;BME280;17111;52.130;5.028;2023-06-24T04:11:00;102492.31;;;26.03;43.88
30302;BME280;17111;52.130;5.028;2023-06-24T04:13:26;102490.44;;;26.04;43.78
30302;BME280;17111;52.130;5.028;2023-06-24T04:15:53;102496.72;;;26.04;43.91
30302;BME280;17111;52.130;5.028;2023-06-24T04:18:19;102497.75;;;26.03;43.88
30302;BME280;17111;52.130;5.028;2023-06-24T04:20:46;102508.44;;;26.05;44.06
30302;BME280;17111;52.130;5.028;2023-06-24T04:23:13;102503.00;;;26.05;43.75
30302;BME280;17111;52.130;5.028;2023-06-24T04:25:40;102510.31;;;26.04;43.95
30302;BME280;17111;52.130;5.028;2023-06-24T04:28:08;102509.47;;;26.04;44.38
30302;BME280;17111;52.130;5.028;2023-06-24T04:30:34;102513.03;;;26.04;43.80
30302;BME280;17111;52.130;5.028;2023-06-24T04:33:08;102508.63;;;26.03;43.84
30302;BME280;17111;52.130;5.028;2023-06-24T04:35:35;102506.75;;;26.04;43.70
30302;BME280;17111;52.130;5.028;2023-06-24T04:38:02;102507.78;;;26.03;43.79
30302;BME280;17111;52.130;5.028;2023-06-24T04:40:28;102515.94;;;26.03;44.07
30302;BME280;17111;52.130;5.028;2023-06-24T04:42:55;102506.94;;;26.02;43.77
30302;BME280;17111;52.130;5.028;2023-06-24T04:45:21;102515.09;;;26.02;43.94
30302;BME280;17111;52.130;5.028;2023-06-24T04:47:48;102517.81;;;26.02;43.96
30302;BME280;17111;52.130;5.028;2023-06-24T04:50:15;102516.78;;;26.03;43.87
30302;BME280;17111;52.130;5.028;2023-06-24T04:52:42;102510.50;;;26.03;43.73
30302;BME280;17111;52.130;5.028;2023-06-24T04:55:09;102505.91;;;26.03;43.75
30302;BME280;17111;52.130;5.028;2023-06-24T04:57:35;102504.88;;;26.04;43.55
30302;BME280;17111;52.130;5.028;2023-06-24T05:00:02;102513.03;;;26.04;43.86
30302;BME280;17111;52.130;5.028;2023-06-24T05:02:29;102514.75;;;26.05;43.44
30302;BME280;17111;52.130;5.028;2023-06-24T05:04:56;102516.44;;;26.06;43.63
30302;BME280;17111;52.130;5.028;2023-06-24T05:07:22;102524.44;;;26.08;43.56
30302;BME280;17111;52.130;5.028;2023-06-24T05:09:49;102524.28;;;26.09;43.65
30302;BME280;17111;52.130;5.028;2023-06-24T05:12:17;102520.53;;;26.11;43.33
30302;BME280;17111;52.130;5.028;2023-06-24T05:14:44;102522.94;;;26.14;43.52
30302;BME280;17111;52.130;5.028;2023-06-24T05:17:10;102519.38;;;26.13;43.58
30302;BME280;17111;52.130;5.028;2023-06-24T05:19:37;102526.31;;;26.16;43.75
30302;BME280;17111;52.130;5.028;2023-06-24T05:22:04;102524.44;;;26.16;43.58
30302;BME280;17111;52.130;5.028;2023-06-24T05:24:30;102525.13;;;26.18;43.63
30302;BME280;17111;52.130;5.028;2023-06-24T05:27:04;102529.38;;;26.21;43.61
30302;BME280;17111;52.130;5.028;2023-06-24T05:29:32;102538.22;;;26.23;43.51
30302;BME280;17111;52.130;5.028;2023-06-24T05:31:59;102533.47;;;26.25;43.47
30302;BME280;17111;52.130;5.028;2023-06-24T05:34:28;102535.00;;;26.27;43.41
30302;BME280;17111;52.130;5.028;2023-06-24T05:36:54;102536.53;;;26.30;43.37
30302;BME280;17111;52.130;5.028;2023-06-24T05:39:21;102536.38;;;26.31;43.29
30302;BME280;17111;52.130;5.028;2023-06-24T05:41:47;102532.47;;;26.34;43.50
30302;BME280;17111;52.130;5.028;2023-06-24T05:44:17;102533.97;;;26.37;43.19
30302;BME280;17111;52.130;5.028;2023-06-24T05:46:46;102541.16;;;26.38;43.17
30302;BME280;17111;52.130;5.028;2023-06-24T05:49:13;102534.50;;;26.40;43.39
30302;BME280;17111;52.130;5.028;2023-06-24T05:51:40;102528.03;;;26.41;43.03
30302;BME280;17111;52.130;5.028;2023-06-24T05:54:06;102528.72;;;26.43;42.65
30302;BME280;17111;52.130;5.028;2023-06-24T05:56:34;102535.75;;;26.46;43.02
30302;BME280;17111;52.130;5.028;2023-06-24T05:59:05;102532.84;;;26.47;42.91
30302;BME280;17111;52.130;5.028;2023-06-24T06:01:32;102536.25;;;26.49;43.03
30302;BME280;17111;52.130;5.028;2023-06-24T06:03:59;102534.38;;;26.50;42.97
30302;BME280;17111;52.130;5.028;2023-06-24T06:06:25;102533.38;;;26.51;42.89
30302;BME280;17111;52.130;5.028;2023-06-24T06:08:52;102542.38;;;26.51;42.92
30302;BME280;17111;52.130;5.028;2023-06-24T06:11:19;102537.78;;;26.52;42.92
30302;BME280;17111;52.130;5.028;2023-06-24T06:13:45;102540.34;;;26.53;42.71
30302;BME280;17111;52.130;5.028;2023-06-24T06:16:12;102538.63;;;26.52;42.60
30302;BME280;17111;52.130;5.028;2023-06-24T06:18:38;102537.78;;;26.52;42.95
30302;BME280;17111;52.130;5.028;2023-06-24T06:21:05;102529.47;;;26.53;42.86
30302;BME280;17111;52.130;5.028;2023-06-24T06:23:32;102536.75;;;26.53;42.67
30302;BME280;17111;52.130;5.028;2023-06-24T06:25:58;102540.34;;;26.53;42.64
30302;BME280;17111;52.130;5.028;2023-06-24T06:28:25;102541.19;;;26.54;42.71
30302;BME280;17111;52.130;5.028;2023-06-24T06:30:51;102546.63;;;26.54;42.99
30302;BME280;17111;52.130;5.028;2023-06-24T06:33:18;102542.88;;;26.55;43.00
30302;BME280;17111;52.130;5.028;2023-06-24T06:35:45;102539.97;;;26.56;42.84
30302;BME280;17111;52.130;5.028;2023-06-24T06:38:11;102539.97;;;26.56;42.78
30302;BME280;17111;52.130;5.028;2023-06-24T06:40:38;102540.81;;;26.57;42.94
30302;BME280;17111;52.130;5.028;2023-06-24T06:43:04;102540.81;;;26.57;42.72
30302;BME280;17111;52.130;5.028;2023-06-24T06:45:31;102541.72;;;26.57;43.21
30302;BME280;17111;52.130;5.028;2023-06-24T06:47:58;102539.84;;;26.58;42.45
30302;BME280;17111;52.130;5.028;2023-06-24T06:50:25;102540.69;;;26.58;42.95
30302;BME280;17111;52.130;5.028;2023-06-24T06:52:51;102537.97;;;26.58;42.55
30302;BME280;17111;52.130;5.028;2023-06-24T06:55:18;102543.41;;;26.58;42.80
30302;BME280;17111;52.130;5.028;2023-06-24T06:57:45;102549.69;;;26.59;42.63
30302;BME280;17111;52.130;5.028;2023-06-24T07:00:12;102543.41;;;26.58;42.89
30302;BME280;17111;52.130;5.028;2023-06-24T07:02:38;102540.69;;;26.58;42.91
30302;BME280;17111;52.130;5.028;2023-06-24T07:05:05;102540.69;;;26.58;42.57
30302;BME280;17111;52.130;5.028;2023-06-24T07:07:32;102538.81;;;26.59;42.68
30302;BME280;17111;52.130;5.028;2023-06-24T07:09:59;102545.09;;;26.60;42.81
30302;BME280;17111;52.130;5.028;2023-06-24T07:12:26;102547.81;;;26.60;42.89
30302;BME280;17111;52.130;5.028;2023-06-24T07:14:52;102549.69;;;26.59;42.74
30302;BME280;17111;52.130;5.028;2023-06-24T07:17:19;102547.81;;;26.60;42.84
30302;BME280;17111;52.130;5.028;2023-06-24T07:19:45;102546.97;;;26.59;42.96
30302;BME280;17111;52.130;5.028;2023-06-24T07:22:12;102545.09;;;26.60;43.07
30302;BME280;17111;52.130;5.028;2023-06-24T07:24:39;102540.50;;;26.60;42.66
30302;BME280;17111;52.130;5.028;2023-06-24T07:27:06;102550.53;;;26.60;43.09
30302;BME280;17111;52.130;5.028;2023-06-24T07:29:33;102545.94;;;26.60;42.92
30302;BME280;17111;52.130;5.028;2023-06-24T07:31:59;102541.34;;;26.61;42.90
30302;BME280;17111;52.130;5.028;2023-06-24T07:34:26;102546.78;;;26.61;43.13
30302;BME280;17111;52.130;5.028;2023-06-24T07:36:52;102539.47;;;26.61;42.95
30302;BME280;17111;52.130;5.028;2023-06-24T07:39:19;102552.22;;;26.61;42.78
30302;BME280;17111;52.130;5.028;2023-06-24T07:41:45;102541.34;;;26.61;42.98
30302;BME280;17111;52.130;5.028;2023-06-24T07:44:12;102546.78;;;26.61;42.93
30302;BME280;17111;52.130;5.028;2023-06-24T07:46:39;102544.91;;;26.61;42.79
30302;BME280;17111;52.130;5.028;2023-06-24T07:49:05;102543.06;;;26.62;42.95
30302;BME280;17111;52.130;5.028;2023-06-24T07:51:32;102541.34;;;26.61;43.16
30302;BME280;17111;52.130;5.028;2023-06-24T07:54:01;102540.34;;;26.62;43.00
30302;BME280;17111;52.130;5.028;2023-06-24T07:56:28;102541.19;;;26.62;43.13
30302;BME280;17111;52.130;5.028;2023-06-24T07:58:54;102534.91;;;26.62;43.23
30302;BME280;17111;52.130;5.028;2023-06-24T08:01:21;102546.44;;;26.64;42.85
30302;BME280;17111;52.130;5.028;2023-06-24T08:03:48;102546.44;;;26.64;42.99
30302;BME280;17111;52.130;5.028;2023-06-24T08:06:14;102549.16;;;26.64;43.06
30302;BME280;17111;52.130;5.028;2023-06-24T08:08:41;102543.72;;;26.64;43.01
30302;BME280;17111;52.130;5.028;2023-06-24T08:11:08;102536.41;;;26.64;42.93
30302;BME280;17111;52.130;5.028;2023-06-24T08:13:34;102541.00;;;26.64;43.10
30302;BME280;17111;52.130;5.028;2023-06-24T08:16:01;102545.28;;;26.66;43.05
30302;BME280;17111;52.130;5.028;2023-06-24T08:18:27;102543.56;;;26.65;42.92
30302;BME280;17111;52.130;5.028;2023-06-24T08:20:54;102546.13;;;26.67;42.92
30302;BME280;17111;52.130;5.028;2023-06-24T08:23:21;102542.38;;;26.68;42.97
30302;BME280;17111;52.130;5.028;2023-06-24T08:25:47;102543.22;;;26.68;42.85
30302;BME280;17111;52.130;5.028;2023-06-24T08:28:14;102539.66;;;26.68;43.07
30302;BME280;17111;52.130;5.028;2023-06-24T08:30:41;102537.78;;;26.68;42.93
30302;BME280;17111;52.130;5.028;2023-06-24T08:33:07;102536.75;;;26.69;43.16
30302;BME280;17111;52.130;5.028;2023-06-24T08:35:34;102537.63;;;26.70;43.18
30302;BME280;17111;52.130;5.028;2023-06-24T08:38:01;102541.19;;;26.70;43.07
30302;BME280;17111;52.130;5.028;2023-06-24T08:40:28;102535.75;;;26.70;42.98
30302;BME280;17111;52.130;5.028;2023-06-24T08:42:55;102541.00;;;26.72;43.10
30302;BME280;17111;52.130;5.028;2023-06-24T08:45:21;102544.56;;;26.72;42.82
30302;BME280;17111;52.130;5.028;2023-06-24T08:47:49;102539.97;;;26.73;43.15
30302;BME280;17111;52.130;5.028;2023-06-24T08:50:18;102538.97;;;26.74;43.05
30302;BME280;17111;52.130;5.028;2023-06-24T08:52:50;102540.69;;;26.75;43.07
30302;BME280;17111;52.130;5.028;2023-06-24T08:55:17;102542.56;;;26.74;43.12
30302;BME280;17111;52.130;5.028;2023-06-24T08:57:49;102541.53;;;26.75;43.16
30302;BME280;17111;52.130;5.028;2023-06-24T09:00:16;102535.06;;;26.76;43.19
30302;BME280;17111;52.130;5.028;2023-06-24T09:02:43;102538.47;;;26.78;42.80
30302;BME280;17111;52.130;5.028;2023-06-24T09:05:10;102542.19;;;26.77;42.84
30302;BME280;17111;52.130;5.028;2023-06-24T09:07:37;102542.03;;;26.79;43.22
30302;BME280;17111;52.130;5.028;2023-06-24T09:10:03;102537.25;;;26.81;43.26
30302;BME280;17111;52.130;5.028;2023-06-24T09:12:34;102539.97;;;26.81;43.45
30302;BME280;17111;52.130;5.028;2023-06-24T09:15:00;102541.50;;;26.83;43.23
30302;BME280;17111;52.130;5.028;2023-06-24T09:17:28;102539.63;;;26.84;43.42
30302;BME280;17111;52.130;5.028;2023-06-24T09:20:04;102534.91;;;26.86;43.07
30302;BME280;17111;52.130;5.028;2023-06-24T09:22:31;102538.28;;;26.88;43.23
30302;BME280;17111;52.130;5.028;2023-06-24T09:25:00;102532.50;;;26.91;43.52
30302;BME280;17111;52.130;5.028;2023-06-24T09:27:31;102538.59;;;26.93;43.43
30302;BME280;17111;52.130;5.028;2023-06-24T09:29:58;102533.66;;;26.97;43.27
30302;BME280;17111;52.130;5.028;2023-06-24T09:32:31;102527.03;;;26.99;43.56
30302;BME280;17111;52.130;5.028;2023-06-24T09:34:58;102530.28;;;27.03;43.47
30302;BME280;17111;52.130;5.028;2023-06-24T09:37:29;102535.38;;;27.06;43.69
30302;BME280;17111;52.130;5.028;2023-06-24T09:39:57;102517.81;;;27.08;43.27
30302;BME280;17111;52.130;5.028;2023-06-24T09:42:24;102523.81;;;27.12;43.74
30302;BME280;17111;52.130;5.028;2023-06-24T09:44:54;102532.47;;;27.16;43.34
30302;BME280;17111;52.130;5.028;2023-06-24T09:47:22;102523.97;;;27.19;43.29
30302;BME280;17111;52.130;5.028;2023-06-24T09:49:53;102523.63;;;27.22;43.41
30302;BME280;17111;52.130;5.028;2023-06-24T09:52:22;102520.53;;;27.25;43.02
30302;BME280;17111;52.130;5.028;2023-06-24T09:54:51;102514.75;;;27.28;43.38
30302;BME280;17111;52.130;5.028;2023-06-24T09:57:26;102522.59;;;27.31;43.58
30302;BME280;17111;52.130;5.028;2023-06-24T09:59:54;102516.78;;;27.34;43.06
30302;BME280;17111;52.130;5.028;2023-06-24T10:02:21;102516.41;;;27.37;43.46
30302;BME280;17111;52.130;5.028;2023-06-24T10:04:48;102512.50;;;27.40;42.98
30302;BME280;17111;52.130;5.028;2023-06-24T10:07:15;102512.31;;;27.41;43.50
30302;BME280;17111;52.130;5.028;2023-06-24T10:09:41;102512.81;;;27.45;43.24
30302;BME280;17111;52.130;5.028;2023-06-24T10:12:09;102511.44;;;27.49;43.13
30302;BME280;17111;52.130;5.028;2023-06-24T10:14:36;102517.56;;;27.51;43.37
30302;BME280;17111;52.130;5.028;2023-06-24T10:17:04;102507.34;;;27.53;43.05
30302;BME280;17111;52.130;5.028;2023-06-24T10:19:38;102513.63;;;27.53;43.41
30302;BME280;17111;52.130;5.028;2023-06-24T10:22:09;102510.56;;;27.56;43.32
30302;BME280;17111;52.130;5.028;2023-06-24T10:24:40;102515.66;;;27.60;42.98
30302;BME280;17111;52.130;5.028;2023-06-24T10:27:15;102506.47;;;27.61;43.69
30302;BME280;17111;52.130;5.028;2023-06-24T10:29:46;102506.09;;;27.64;43.32
30302;BME280;17111;52.130;5.028;2023-06-24T10:32:14;102504.03;;;27.66;43.54
30302;BME280;17111;52.130;5.028;2023-06-24T10:37:54;102499.94;;;27.70;43.60
30302;BME280;17111;52.130;5.028;2023-06-24T10:40:02;102506.91;;;27.72;43.42
30302;BME280;17111;52.130;5.028;2023-06-24T10:45:19;102495.84;;;27.74;43.43
30302;BME280;17111;52.130;5.028;2023-06-24T10:47:51;102494.50;;;27.78;43.46
30302;BME280;17111;52.130;5.028;2023-06-24T10:50:23;102496.00;;;27.80;43.62
30302;BME280;17111;52.130;5.028;2023-06-24T10:52:52;102502.97;;;27.83;43.47
30302;BME280;17111;52.130;5.028;2023-06-24T10:55:24;102498.19;;;27.85;42.72
30302;BME280;17111;52.130;5.028;2023-06-24T10:57:53;102489.84;;;27.87;43.38
30302;BME280;17111;52.130;5.028;2023-06-24T11:00:21;102485.25;;;27.87;43.08
30302;BME280;17111;52.130;5.028;2023-06-24T11:02:48;102482.16;;;27.90;42.76
30302;BME280;17111;52.130;5.028;2023-06-24T11:05:15;102484.69;;;27.92;43.38
30302;BME280;17111;52.130;5.028;2023-06-24T11:07:41;102487.22;;;27.93;43.13
30302;BME280;17111;52.130;5.028;2023-06-24T11:10:11;102482.47;;;27.95;43.11
30302;BME280;17111;52.130;5.028;2023-06-24T11:12:40;102485.00;;;27.97;43.42
30302;BME280;17111;52.130;5.028;2023-06-24T11:15:09;102477.50;;;27.99;42.60
30302;BME280;17111;52.130;5.028;2023-06-24T11:17:37;102481.72;;;28.01;43.36
30302;BME280;17111;52.130;5.028;2023-06-24T11:20:12;102473.53;;;28.01;42.96
30302;BME280;17111;52.130;5.028;2023-06-24T11:22:44;102473.19;;;28.04;42.79
30302;BME280;17111;52.130;5.028;2023-06-24T11:25:20;102477.59;;;28.05;43.13
30302;BME280;17111;52.130;5.028;2023-06-24T11:27:50;102481.00;;;28.08;42.54
30302;BME280;17111;52.130;5.028;2023-06-24T11:30:20;102474.38;;;28.10;43.22
30302;BME280;17111;52.130;5.028;2023-06-24T11:32:47;102474.16;;;28.12;42.63
30302;BME280;17111;52.130;5.028;2023-06-24T11:35:14;102464.09;;;28.12;42.72
30302;BME280;17111;52.130;5.028;2023-06-24T11:37:43;102466.63;;;28.14;42.37
30302;BME280;17111;52.130;5.028;2023-06-24T11:40:10;102467.31;;;28.16;42.28
30302;BME280;17111;52.130;5.028;2023-06-24T11:42:41;102465.25;;;28.18;43.03
30302;BME280;17111;52.130;5.028;2023-06-24T11:45:11;102453.34;;;28.19;42.97
30302;BME280;17111;52.130;5.028;2023-06-24T11:47:42;102459.44;;;28.21;42.75
30302;BME280;17111;52.130;5.028;2023-06-24T11:50:09;102457.56;;;28.21;42.96
30302;BME280;17111;52.130;5.028;2023-06-24T11:55:02;102455.31;;;28.25;42.43
30302;BME280;17111;52.130;5.028;2023-06-24T12:00:41;102447.81;;;28.27;43.11
30302;BME280;17111;52.130;5.028;2023-06-24T12:03:10;102451.03;;;28.31;42.79
30302;BME280;17111;52.130;5.028;2023-06-24T12:05:39;102444.69;;;28.30;42.34
30302;BME280;17111;52.130;5.028;2023-06-24T12:08:12;102449.16;;;28.31;42.35
30302;BME280;17111;52.130;5.028;2023-06-24T12:10:43;102434.94;;;28.36;42.98
30302;BME280;17111;52.130;5.028;2023-06-24T12:13:10;102433.09;;;28.36;42.10
30302;BME280;17111;52.130;5.028;2023-06-24T12:15:37;102441.28;;;28.36;42.81
30302;BME280;17111;52.130;5.028;2023-06-24T12:18:03;102438.56;;;28.36;42.13
30302;BME280;17111;52.130;5.028;2023-06-24T12:20:31;102440.25;;;28.37;42.46
30302;BME280;17111;52.130;5.028;2023-06-24T12:23:03;102426.59;;;28.37;42.89
30302;BME280;17111;52.130;5.028;2023-06-24T12:25:30;102437.34;;;28.39;42.16
30302;BME280;17111;52.130;5.028;2023-06-24T12:27:57;102435.47;;;28.39;42.17
30302;BME280;17111;52.130;5.028;2023-06-24T12:30:26;102436.31;;;28.40;42.23
30302;BME280;17111;52.130;5.028;2023-06-24T12:32:52;102427.09;;;28.41;42.22
30302;BME280;17111;52.130;5.028;2023-06-24T12:35:19;102434.22;;;28.42;42.73
30302;BME280;17111;52.130;5.028;2023-06-24T12:37:46;102430.66;;;28.41;42.02
30302;BME280;17111;52.130;5.028;2023-06-24T12:40:14;102430.50;;;28.43;42.71
30302;BME280;17111;52.130;5.028;2023-06-24T12:42:40;102425.03;;;28.43;42.80
30302;BME280;17111;52.130;5.028;2023-06-24T12:45:07;102423.16;;;28.43;42.01
30302;BME280;17111;52.130;5.028;2023-06-24T12:47:34;102428.59;;;28.43;41.88
30302;BME280;17111;52.130;5.028;2023-06-24T12:50:01;102430.50;;;28.43;42.00
30302;BME280;17111;52.130;5.028;2023-06-24T12:52:27;102424.00;;;28.44;42.38
30302;BME280;17111;52.130;5.028;2023-06-24T12:54:54;102414.97;;;28.43;42.33
30302;BME280;17111;52.130;5.028;2023-06-24T12:57:20;102414.97;;;28.43;41.73
30302;BME280;17111;52.130;5.028;2023-06-24T12:59:47;102410.34;;;28.44;41.85
30302;BME280;17111;52.130;5.028;2023-06-24T13:02:14;102421.28;;;28.44;41.76
30302;BME280;17111;52.130;5.028;2023-06-24T13:04:40;102416.66;;;28.44;41.65
30302;BME280;17111;52.130;5.028;2023-06-24T13:07:07;102421.28;;;28.44;42.37
30302;BME280;17111;52.130;5.028;2023-06-24T13:09:36;102422.97;;;28.45;41.84
30302;BME280;17111;52.130;5.028;2023-06-24T13:12:02;102423.78;;;28.45;42.61
30302;BME280;17111;52.130;5.028;2023-06-24T13:14:29;102419.19;;;28.46;42.65
30302;BME280;17111;52.130;5.028;2023-06-24T13:16:56;102419.19;;;28.46;42.25